createdAt,value
2022-11-13T00:00:24.290Z,11.80
2022-11-13T00:03:30.489Z,11.70
2022-11-13T00:06:34.791Z,11.70
2022-11-13T00:09:39.435Z,11.70
2022-11-13T00:12:43.810Z,11.70
2022-11-13T00:15:58.186Z,11.60
2022-11-13T00:19:02.630Z,11.50
2022-11-13T00:22:07.400Z,11.50
2022-11-13T00:25:14.733Z,11.50
2022-11-13T00:28:19.845Z,11.40
2022-11-13T00:31:25.245Z,11.40
2022-11-13T00:37:54.959Z,11.40
2022-11-13T00:40:59.802Z,11.50
2022-11-13T00:44:04.491Z,11.50
2022-11-13T00:47:08.683Z,11.50
2022-11-13T00:50:12.981Z,11.50
2022-11-13T00:53:18.300Z,11.50
2022-11-13T00:56:23.657Z,11.50
2022-11-13T00:59:28.390Z,11.40
2022-11-13T01:02:33.416Z,11.40
2022-11-13T01:05:39.236Z,11.40
2022-11-13T01:08:44.407Z,11.40
2022-11-13T01:11:48.730Z,11.40
2022-11-13T01:14:53.379Z,11.40
2022-11-13T01:17:58.428Z,11.30
2022-11-13T01:21:09.721Z,11.30
2022-11-13T01:24:14.178Z,11.30
2022-11-13T01:27:18.844Z,11.30
2022-11-13T01:30:24.069Z,11.20
2022-11-13T01:33:29.218Z,11.20
2022-11-13T01:36:34.427Z,11.20
2022-11-13T01:39:39.237Z,11.20
2022-11-13T01:42:43.692Z,11.10
2022-11-13T01:46:00.197Z,11.10
2022-11-13T01:49:11.151Z,11.10
2022-11-13T01:52:33.481Z,11.10
2022-11-13T01:55:37.848Z,11.10
2022-11-13T01:58:46.801Z,11.10
2022-11-13T02:01:51.773Z,11.10
2022-11-13T02:04:56.135Z,11.10
2022-11-13T02:08:01.580Z,11.10
2022-11-13T02:11:06.390Z,11.20
2022-11-13T02:14:12.796Z,11.20
2022-11-13T02:17:25.784Z,11.20
2022-11-13T02:20:37.885Z,11.30
2022-11-13T02:23:57.640Z,11.30
2022-11-13T02:27:07.356Z,11.30
2022-11-13T02:30:27.134Z,11.40
2022-11-13T02:33:33.607Z,11.40
2022-11-13T02:36:37.964Z,11.50
2022-11-13T02:39:43.216Z,11.50
2022-11-13T02:42:47.311Z,11.50
2022-11-13T02:45:52.332Z,11.50
2022-11-13T02:48:57.197Z,11.50
2022-11-13T02:52:01.343Z,11.50
2022-11-13T02:55:06.545Z,11.50
2022-11-13T02:58:11.787Z,11.50
2022-11-13T03:01:15.865Z,11.50
2022-11-13T03:04:20.400Z,11.40
2022-11-13T03:07:24.806Z,11.50
2022-11-13T03:10:29.749Z,11.50
2022-11-13T03:13:33.936Z,11.40
2022-11-13T03:16:38.538Z,11.40
2022-11-13T03:19:42.487Z,11.40
2022-11-13T03:22:46.744Z,11.30
2022-11-13T03:25:51.736Z,11.30
2022-11-13T03:28:56.243Z,11.30
2022-11-13T03:32:00.605Z,11.20
2022-11-13T03:35:06.173Z,11.20
2022-11-13T03:38:10.804Z,11.10
2022-11-13T03:41:15.007Z,11.10
2022-11-13T03:44:19.731Z,11.10
2022-11-13T03:47:24.811Z,11.10
2022-11-13T03:50:29.799Z,11.10
2022-11-13T03:53:34.267Z,11.10
2022-11-13T03:56:39.100Z,11.00
2022-11-13T03:59:43.738Z,11.00
2022-11-13T04:02:47.886Z,11.00
2022-11-13T04:05:52.496Z,11.00
2022-11-13T04:08:57.503Z,11.00
2022-11-13T04:12:02.619Z,11.00
2022-11-13T04:15:07.610Z,10.90
2022-11-13T04:18:12.461Z,10.90
2022-11-13T04:21:17.236Z,10.90
2022-11-13T04:24:21.325Z,10.90
2022-11-13T04:27:26.138Z,10.90
2022-11-13T04:30:30.130Z,10.80
2022-11-13T04:33:34.908Z,10.80
2022-11-13T04:36:39.136Z,10.90
2022-11-13T04:39:43.608Z,10.90
2022-11-13T04:42:50.999Z,10.80
2022-11-13T04:45:55.218Z,10.80
2022-11-13T04:48:59.766Z,10.80
2022-11-13T04:52:04.396Z,10.80
2022-11-13T04:55:09.916Z,10.70
2022-11-13T04:58:14.713Z,10.70
2022-11-13T05:01:19.204Z,10.60
2022-11-13T05:04:24.997Z,10.60
2022-11-13T05:07:29.628Z,10.60
2022-11-13T05:10:34.068Z,10.60
2022-11-13T05:13:39.421Z,10.60
2022-11-13T05:16:43.809Z,10.50
2022-11-13T05:19:48.265Z,10.50
2022-11-13T05:22:52.630Z,10.50
2022-11-13T05:26:12.621Z,10.50
2022-11-13T05:29:17.679Z,10.50
2022-11-13T05:32:21.857Z,10.50
2022-11-13T05:35:26.777Z,10.50
2022-11-13T05:38:31.702Z,10.50
2022-11-13T05:41:36.388Z,10.50
2022-11-13T05:44:40.784Z,10.40
2022-11-13T05:47:45.467Z,10.40
2022-11-13T05:50:50.004Z,10.40
2022-11-13T05:53:54.728Z,10.40
2022-11-13T05:56:59.328Z,10.40
2022-11-13T06:00:05.380Z,10.40
2022-11-13T06:03:09.784Z,10.40
2022-11-13T06:06:17.191Z,10.40
2022-11-13T06:09:21.947Z,10.40
2022-11-13T06:12:26.064Z,10.40
2022-11-13T06:15:30.632Z,10.40
2022-11-13T06:18:35.395Z,10.40
2022-11-13T06:21:41.492Z,10.40
2022-11-13T06:24:46.268Z,10.40
2022-11-13T06:27:50.727Z,10.40
2022-11-13T06:30:55.358Z,10.30
2022-11-13T06:34:00.357Z,10.30
2022-11-13T06:37:04.546Z,10.30
2022-11-13T06:40:09.775Z,10.40
2022-11-13T06:43:14.612Z,10.30
2022-11-13T06:46:23.001Z,10.20
2022-11-13T06:49:27.332Z,10.30
2022-11-13T06:52:31.955Z,10.30
2022-11-13T06:55:42.289Z,10.20
2022-11-13T06:58:46.560Z,10.20
2022-11-13T07:01:51.819Z,10.30
2022-11-13T07:04:57.021Z,10.30
2022-11-13T07:08:02.108Z,10.20
2022-11-13T07:11:10.099Z,10.20
2022-11-13T07:14:14.712Z,10.20
2022-11-13T07:17:19.530Z,10.20
2022-11-13T07:20:25.214Z,10.30
2022-11-13T07:23:29.139Z,10.30
2022-11-13T07:26:33.500Z,10.30
2022-11-13T07:29:39.132Z,10.40
2022-11-13T07:32:43.708Z,10.40
2022-11-13T07:35:48.505Z,10.40
2022-11-13T07:38:56.648Z,10.40
2022-11-13T07:42:03.891Z,10.50
2022-11-13T07:45:14.914Z,10.50
2022-11-13T07:48:20.992Z,10.60
2022-11-13T07:51:25.448Z,10.60
2022-11-13T07:54:30.544Z,10.70
2022-11-13T07:57:34.588Z,10.70
2022-11-13T08:00:40.659Z,10.80
2022-11-13T08:03:44.957Z,10.80
2022-11-13T08:06:49.301Z,10.90
2022-11-13T08:09:54.607Z,10.90
2022-11-13T08:13:04.644Z,11.00
2022-11-13T08:16:09.750Z,11.00
2022-11-13T08:19:14.334Z,11.00
2022-11-13T08:22:19.750Z,11.10
2022-11-13T08:25:24.269Z,11.20
2022-11-13T08:28:29.551Z,11.20
2022-11-13T08:31:34.108Z,11.30
2022-11-13T08:34:38.927Z,11.40
2022-11-13T08:37:43.559Z,11.50
2022-11-13T08:40:48.312Z,11.50
2022-11-13T08:43:52.908Z,11.60
2022-11-13T08:46:57.700Z,11.70
2022-11-13T08:50:02.727Z,11.70
2022-11-13T08:53:11.314Z,11.70
2022-11-13T08:56:15.813Z,11.70
2022-11-13T08:59:20.424Z,11.80
2022-11-13T09:02:25.225Z,11.90
2022-11-13T09:05:29.465Z,11.90
2022-11-13T09:08:34.871Z,12.00
2022-11-13T09:11:39.651Z,12.10
2022-11-13T09:14:44.674Z,12.10
2022-11-13T09:17:49.088Z,12.10
2022-11-13T09:20:53.567Z,12.20
2022-11-13T09:23:58.452Z,12.30
2022-11-13T09:27:03.219Z,12.30
2022-11-13T09:30:08.621Z,12.40
2022-11-13T09:33:15.748Z,12.40
2022-11-13T09:36:21.134Z,12.40
2022-11-13T09:39:25.821Z,12.50
2022-11-13T09:42:32.852Z,12.60
2022-11-13T09:45:40.359Z,12.60
2022-11-13T09:48:56.968Z,12.70
2022-11-13T09:52:09.778Z,12.70
2022-11-13T09:55:17.784Z,12.80
2022-11-13T09:58:50.219Z,12.80
2022-11-13T10:02:07.787Z,12.90
2022-11-13T10:05:31.365Z,13.00
2022-11-13T10:08:47.172Z,13.00
2022-11-13T10:11:58.349Z,13.00
2022-11-13T10:15:04.980Z,13.10
2022-11-13T10:18:20.219Z,13.20
2022-11-13T10:21:55.002Z,13.30
2022-11-13T10:25:19.691Z,13.30
2022-11-13T10:28:49.312Z,13.40
2022-11-13T10:31:53.168Z,13.40
2022-11-13T10:35:09.863Z,13.50
2022-11-13T10:38:32.988Z,13.50
2022-11-13T10:41:52.703Z,13.60
2022-11-13T10:45:00.928Z,13.60
2022-11-13T10:48:06.739Z,13.70
2022-11-13T10:51:22.554Z,13.70
2022-11-13T10:54:29.880Z,13.80
2022-11-13T10:57:34.900Z,13.80
2022-11-13T11:00:41.466Z,13.90
2022-11-13T11:03:50.434Z,14.00
2022-11-13T11:07:19.041Z,14.00
2022-11-13T11:10:20.527Z,14.10
2022-11-13T11:13:25.529Z,14.20
2022-11-13T11:16:31.015Z,14.20
2022-11-13T11:19:38.779Z,14.20
2022-11-13T11:22:45.880Z,14.30
2022-11-13T11:26:01.161Z,14.40
2022-11-13T11:29:30.267Z,14.50
2022-11-13T11:32:45.490Z,14.50
2022-11-13T11:35:51.201Z,14.50
2022-11-13T11:39:02.687Z,14.60
2022-11-13T11:42:35.610Z,14.70
2022-11-13T11:45:44.695Z,14.70
2022-11-13T11:48:49.642Z,14.80
2022-11-13T11:52:12.360Z,14.90
2022-11-13T11:55:38.520Z,15.00
2022-11-13T11:59:08.887Z,15.10
2022-11-13T12:02:53.875Z,15.10
2022-11-13T12:06:36.080Z,15.10
2022-11-13T12:10:02.743Z,15.10
2022-11-13T12:13:17.467Z,15.10
2022-11-13T12:16:38.668Z,15.20
2022-11-13T12:19:46.718Z,15.20
2022-11-13T12:22:58.216Z,15.30
2022-11-13T12:26:35.363Z,15.40
2022-11-13T12:29:55.302Z,15.60
2022-11-13T12:33:31.288Z,16.10
2022-11-13T12:36:36.780Z,16.20
2022-11-13T12:39:50.285Z,16.10
2022-11-13T12:43:27.326Z,15.80
2022-11-13T12:46:37.941Z,15.80
2022-11-13T12:49:41.979Z,15.80
2022-11-13T12:52:59.304Z,15.70
2022-11-13T12:56:04.508Z,15.60
2022-11-13T12:59:30.882Z,15.50
2022-11-13T13:03:07.729Z,15.50
2022-11-13T13:06:21.733Z,15.60
2022-11-13T13:09:38.623Z,15.60
2022-11-13T13:12:56.884Z,15.60
2022-11-13T13:16:07.258Z,15.70
2022-11-13T13:19:31.622Z,15.90
2022-11-13T13:22:36.226Z,15.80
2022-11-13T13:25:41.207Z,15.80
2022-11-13T13:29:02.189Z,16.00
2022-11-13T13:32:25.961Z,16.30
2022-11-13T13:35:41.831Z,16.60
2022-11-13T13:39:07.121Z,16.80
2022-11-13T13:42:39.892Z,16.80
2022-11-13T13:45:48.058Z,17.50
2022-11-13T13:48:57.007Z,17.70
2022-11-13T13:52:02.754Z,18.60
2022-11-13T13:55:16.347Z,19.70
2022-11-13T13:58:28.308Z,19.00
2022-11-13T14:01:34.605Z,18.30
2022-11-13T14:04:47.487Z,18.00
2022-11-13T14:07:52.168Z,18.10
2022-11-13T14:10:56.420Z,17.60
2022-11-13T14:14:08.918Z,17.30
2022-11-13T14:17:27.443Z,17.10
2022-11-13T14:20:40.808Z,16.90
2022-11-13T14:23:51.113Z,16.70
2022-11-13T14:26:56.364Z,16.60
2022-11-13T14:30:03.022Z,16.50
2022-11-13T14:33:11.759Z,16.40
2022-11-13T14:36:24.951Z,16.30
2022-11-13T14:39:34.421Z,16.40
2022-11-13T14:42:46.398Z,16.40
2022-11-13T14:46:03.495Z,16.40
2022-11-13T14:49:28.820Z,16.30
2022-11-13T14:52:33.947Z,16.10
2022-11-13T14:55:50.412Z,16.10
2022-11-13T14:58:55.859Z,16.10
2022-11-13T15:02:00.411Z,16.00
2022-11-13T15:05:04.928Z,16.00
2022-11-13T15:08:14.063Z,15.80
2022-11-13T15:11:21.150Z,15.70
2022-11-13T15:14:26.441Z,15.50
2022-11-13T15:17:31.925Z,15.50
2022-11-13T15:20:36.917Z,15.40
2022-11-13T15:23:41.888Z,15.40
2022-11-13T15:26:45.920Z,15.30
2022-11-13T15:29:50.855Z,15.20
2022-11-13T15:32:57.207Z,15.20
2022-11-13T15:36:01.749Z,15.10
2022-11-13T15:39:10.324Z,15.10
2022-11-13T15:42:30.570Z,15.00
2022-11-13T15:45:39.867Z,14.90
2022-11-13T15:48:48.694Z,14.90
2022-11-13T15:51:53.245Z,14.80
2022-11-13T15:54:58.464Z,14.80
2022-11-13T15:58:03.170Z,14.80
2022-11-13T16:01:09.450Z,14.80
2022-11-13T16:04:16.297Z,14.70
2022-11-13T16:07:27.807Z,14.60
2022-11-13T16:10:32.053Z,14.60
2022-11-13T16:13:36.876Z,14.50
2022-11-13T16:16:41.882Z,14.50
2022-11-13T16:19:50.200Z,14.40
2022-11-13T16:22:55.027Z,14.30
2022-11-13T16:25:59.572Z,14.20
2022-11-13T16:29:19.895Z,14.10
2022-11-13T16:32:24.160Z,14.00
2022-11-13T16:35:28.424Z,14.10
2022-11-13T16:38:33.123Z,14.10
2022-11-13T16:41:37.744Z,14.10
2022-11-13T16:44:42.800Z,14.00
2022-11-13T16:47:47.157Z,13.90
2022-11-13T16:50:51.901Z,13.80
2022-11-13T16:53:56.775Z,13.80
2022-11-13T16:57:00.951Z,13.70
2022-11-13T17:00:07.608Z,13.70
2022-11-13T17:03:11.684Z,13.70
2022-11-13T17:06:28.035Z,13.70
2022-11-13T17:09:33.489Z,13.60
2022-11-13T17:12:39.160Z,13.70
2022-11-13T17:15:43.647Z,13.60
2022-11-13T17:18:49.603Z,13.60
2022-11-13T17:21:53.997Z,13.50
2022-11-13T17:24:59.276Z,13.60
2022-11-13T17:28:03.693Z,13.60
2022-11-13T17:31:14.377Z,13.60
2022-11-13T17:34:18.704Z,13.60
2022-11-13T17:37:25.345Z,13.50
2022-11-13T17:40:30.338Z,13.50
2022-11-13T17:43:36.610Z,13.50
2022-11-13T17:46:41.794Z,13.50
2022-11-13T17:49:46.175Z,13.50
2022-11-13T17:52:51.131Z,13.60
2022-11-13T17:56:04.716Z,13.60
2022-11-13T17:59:13.249Z,13.70
2022-11-13T18:02:17.694Z,13.60
2022-11-13T18:05:22.199Z,13.70
2022-11-13T18:08:27.264Z,13.70
2022-11-13T18:11:31.780Z,13.60
2022-11-13T18:14:36.789Z,13.70
2022-11-13T18:17:41.472Z,13.70
2022-11-13T18:20:46.876Z,13.70
2022-11-13T18:24:01.065Z,13.70
2022-11-13T18:27:08.442Z,13.70
2022-11-13T18:30:12.969Z,13.70
2022-11-13T18:33:17.567Z,13.70
2022-11-13T18:36:22.157Z,13.70
2022-11-13T18:39:27.072Z,13.80
2022-11-13T18:42:31.805Z,13.70
2022-11-13T18:45:36.340Z,13.70
2022-11-13T18:48:43.268Z,13.70
2022-11-13T18:51:48.470Z,13.70
2022-11-13T18:54:53.251Z,13.70
2022-11-13T18:57:57.653Z,13.70
2022-11-13T19:01:10.111Z,13.70
2022-11-13T19:04:22.771Z,13.60
2022-11-13T19:07:27.833Z,13.60
2022-11-13T19:10:34.687Z,13.60
2022-11-13T19:13:41.083Z,13.60
2022-11-13T19:16:46.200Z,13.60
2022-11-13T19:19:51.033Z,13.50
2022-11-13T19:22:55.601Z,13.50
2022-11-13T19:26:00.541Z,13.40
2022-11-13T19:29:04.990Z,13.40
2022-11-13T19:32:09.662Z,13.40
2022-11-13T19:35:14.233Z,13.30
2022-11-13T19:38:18.847Z,13.40
2022-11-13T19:41:26.775Z,13.40
2022-11-13T19:44:31.561Z,13.40
2022-11-13T19:47:36.497Z,13.40
2022-11-13T19:50:43.729Z,13.40
2022-11-13T19:53:52.649Z,13.40
2022-11-13T19:56:57.895Z,13.30
2022-11-13T20:00:03.485Z,13.30
2022-11-13T20:03:08.109Z,13.40
2022-11-13T20:06:16.509Z,13.40
2022-11-13T20:09:20.672Z,13.40
2022-11-13T20:12:28.067Z,13.40
2022-11-13T20:15:33.299Z,13.40
2022-11-13T20:18:38.965Z,13.40
2022-11-13T20:21:44.128Z,13.50
2022-11-13T20:24:49.931Z,13.40
2022-11-13T20:27:57.470Z,13.40
2022-11-13T20:31:12.439Z,13.50
2022-11-13T20:34:17.586Z,13.50
2022-11-13T20:37:22.540Z,13.50
2022-11-13T20:40:27.784Z,13.50
2022-11-13T20:43:33.828Z,13.50
2022-11-13T20:46:38.613Z,13.50
2022-11-13T20:49:43.931Z,13.50
2022-11-13T20:52:49.762Z,13.40
2022-11-13T20:55:55.276Z,13.40
2022-11-13T20:59:00.820Z,13.40
2022-11-13T21:02:06.045Z,13.40
2022-11-13T21:05:11.272Z,13.40
2022-11-13T21:08:16.008Z,13.40
2022-11-13T21:11:22.332Z,13.40
2022-11-13T21:14:27.752Z,13.40
2022-11-13T21:17:32.583Z,13.40
2022-11-13T21:20:37.985Z,13.40
2022-11-13T21:23:42.871Z,13.30
2022-11-13T21:26:51.276Z,13.40
2022-11-13T21:29:56.381Z,13.40
2022-11-13T21:33:01.619Z,13.30
2022-11-13T21:36:10.945Z,13.30
2022-11-13T21:39:16.571Z,13.30
2022-11-13T21:42:21.595Z,13.30
2022-11-13T21:45:26.415Z,13.30
2022-11-13T21:48:33.423Z,13.30
2022-11-13T21:51:40.851Z,13.30
2022-11-13T21:54:45.564Z,13.30
2022-11-13T21:57:49.846Z,13.30
2022-11-13T22:00:54.443Z,13.30
2022-11-13T22:03:59.003Z,13.30
2022-11-13T22:07:04.271Z,13.30
2022-11-13T22:10:09.545Z,13.20
2022-11-13T22:13:14.218Z,13.30
2022-11-13T22:16:20.250Z,13.30
2022-11-13T22:19:29.223Z,13.20
2022-11-13T22:22:36.124Z,13.20
2022-11-13T22:25:40.656Z,13.20
2022-11-13T22:28:46.897Z,13.20
2022-11-13T22:31:51.906Z,13.20
2022-11-13T22:34:57.483Z,13.20
2022-11-13T22:38:02.936Z,13.20
2022-11-13T22:41:10.009Z,13.20
2022-11-13T22:44:15.272Z,13.20
2022-11-13T22:47:20.321Z,13.20
2022-11-13T22:50:24.461Z,13.10
2022-11-13T22:53:28.856Z,13.10
2022-11-13T22:56:34.755Z,13.20
2022-11-13T22:59:40.140Z,13.10
2022-11-13T23:02:47.227Z,13.10
2022-11-13T23:05:52.689Z,13.10
2022-11-13T23:08:56.920Z,13.10
2022-11-13T23:12:02.180Z,13.10
2022-11-13T23:15:07.778Z,13.00
2022-11-13T23:18:12.939Z,13.00
2022-11-13T23:21:18.367Z,13.00
2022-11-13T23:24:23.914Z,13.00
2022-11-13T23:27:28.500Z,13.00
2022-11-13T23:30:33.169Z,13.00
2022-11-13T23:33:38.785Z,13.00
2022-11-13T23:36:42.927Z,13.00
2022-11-13T23:39:47.151Z,12.90
2022-11-13T23:42:55.865Z,12.90
2022-11-13T23:46:02.087Z,12.90
2022-11-13T23:49:06.332Z,12.90
2022-11-13T23:52:10.891Z,12.90
2022-11-13T23:55:15.918Z,12.80
2022-11-13T23:58:20.261Z,12.80
